createdAt,value
2019-02-18T00:00:01.941Z,4.03
2019-02-18T00:02:31.355Z,3.23
2019-02-18T00:04:58.805Z,4.30
2019-02-18T00:07:26.151Z,3.83
2019-02-18T00:09:53.551Z,2.90
2019-02-18T00:12:21.173Z,4.77
2019-02-18T00:14:48.926Z,11.83
2019-02-18T00:17:16.268Z,4.33
2019-02-18T00:19:43.712Z,3.60
2019-02-18T00:22:11.227Z,2.80
2019-02-18T00:24:38.734Z,4.63
2019-02-18T00:27:06.246Z,2.40
2019-02-18T00:29:33.637Z,3.53
2019-02-18T00:32:01.454Z,3.10
2019-02-18T00:34:28.830Z,3.37
2019-02-18T00:36:56.583Z,4.43
2019-02-18T00:39:23.950Z,5.23
2019-02-18T00:41:51.352Z,3.67
2019-02-18T00:44:18.713Z,9.53
2019-02-18T00:46:46.093Z,10.13
2019-02-18T00:49:13.835Z,6.73
2019-02-18T00:51:41.502Z,11.13
2019-02-18T00:54:08.963Z,7.07
2019-02-18T00:56:36.588Z,6.17
2019-02-18T00:59:04.071Z,4.80
2019-02-18T01:01:31.433Z,4.67
2019-02-18T01:03:59.254Z,2.90
2019-02-18T01:06:26.964Z,4.67
2019-02-18T01:08:54.592Z,4.40
2019-02-18T01:11:21.916Z,6.57
2019-02-18T01:13:49.463Z,9.00
2019-02-18T01:16:17.199Z,5.73
2019-02-18T01:18:44.726Z,6.90
2019-02-18T01:21:12.416Z,7.80
2019-02-18T01:23:40.305Z,4.73
2019-02-18T01:26:08.151Z,7.30
2019-02-18T01:28:35.644Z,2.83
2019-02-18T01:31:03.159Z,4.17
2019-02-18T01:33:30.926Z,3.77
2019-02-18T01:35:58.691Z,3.62
2019-02-18T01:38:26.321Z,4.25
2019-02-18T01:40:53.991Z,3.60
2019-02-18T01:43:21.501Z,3.05
2019-02-18T01:45:49.252Z,2.75
2019-02-18T01:48:17.044Z,2.80
2019-02-18T01:50:44.668Z,2.43
2019-02-18T01:53:12.054Z,2.00
2019-02-18T01:55:39.417Z,2.50
2019-02-18T01:58:07.030Z,2.22
2019-02-18T02:00:34.830Z,2.23
2019-02-18T02:03:02.775Z,3.52
2019-02-18T02:05:30.227Z,2.30
2019-02-18T02:07:57.604Z,2.92
2019-02-18T02:10:25.188Z,4.62
2019-02-18T02:13:24.817Z,2.60
2019-02-18T02:15:52.645Z,2.80
2019-02-18T02:18:20.223Z,2.25
2019-02-18T02:20:47.920Z,2.77
2019-02-18T02:23:15.460Z,2.67
2019-02-18T02:25:42.787Z,3.15
2019-02-18T02:28:10.266Z,3.40
2019-02-18T02:30:38.384Z,2.90
2019-02-18T02:33:06.275Z,8.98
2019-02-18T02:35:34.003Z,6.70
2019-02-18T02:38:07.523Z,6.83
2019-02-18T02:40:31.436Z,5.90
2019-02-18T02:42:58.935Z,10.10
2019-02-18T02:45:26.425Z,7.97
2019-02-18T02:47:53.820Z,15.70
2019-02-18T02:50:21.459Z,14.03
2019-02-18T02:52:49.158Z,14.18
2019-02-18T02:55:16.955Z,8.68
2019-02-18T02:57:44.492Z,8.85
2019-02-18T03:00:12.250Z,5.78
2019-02-18T03:02:39.597Z,5.25
2019-02-18T03:05:07.303Z,5.12
2019-02-18T03:07:35.051Z,4.95
2019-02-18T03:10:03.021Z,3.70
2019-02-18T03:12:30.440Z,3.95
2019-02-18T03:14:57.984Z,4.05
2019-02-18T03:17:25.465Z,4.22
2019-02-18T03:19:53.157Z,3.23
2019-02-18T03:22:21.239Z,4.33
2019-02-18T03:25:13.678Z,3.52
2019-02-18T03:27:41.180Z,3.10
2019-02-18T03:30:52.537Z,2.58
2019-02-18T03:33:35.833Z,3.98
2019-02-18T03:36:03.719Z,3.40
2019-02-18T03:38:32.115Z,4.92
2019-02-18T03:41:03.457Z,2.98
2019-02-18T03:43:30.544Z,2.30
2019-02-18T03:45:58.347Z,3.42
2019-02-18T03:48:25.733Z,2.70
2019-02-18T03:50:53.082Z,3.90
2019-02-18T03:53:20.600Z,2.42
2019-02-18T03:55:48.014Z,3.55
2019-02-18T03:58:15.372Z,3.40
2019-02-18T04:00:42.850Z,3.20
2019-02-18T04:03:10.196Z,3.10
2019-02-18T04:05:37.561Z,3.47
2019-02-18T04:08:05.460Z,3.12
2019-02-18T04:10:32.825Z,2.87
2019-02-18T04:13:00.706Z,2.77
2019-02-18T04:15:28.456Z,4.12
2019-02-18T04:17:56.189Z,3.05
2019-02-18T04:20:23.540Z,2.98
2019-02-18T04:22:50.877Z,3.45
2019-02-18T04:25:18.678Z,3.30
2019-02-18T04:27:46.304Z,4.00
2019-02-18T04:30:13.891Z,3.40
2019-02-18T04:32:41.883Z,3.15
2019-02-18T04:35:09.524Z,3.77
2019-02-18T04:37:36.889Z,3.95
2019-02-18T04:40:04.747Z,3.10
2019-02-18T04:42:32.528Z,3.83
2019-02-18T04:45:00.384Z,4.00
2019-02-18T04:47:27.759Z,5.58
2019-02-18T04:50:14.714Z,6.22
2019-02-18T04:52:42.569Z,6.75
2019-02-18T04:55:10.023Z,4.95
2019-02-18T04:57:37.924Z,5.35
2019-02-18T05:00:05.542Z,5.55
2019-02-18T05:02:33.009Z,5.00
2019-02-18T05:05:00.572Z,5.42
2019-02-18T05:07:28.354Z,7.35
2019-02-18T05:09:56.239Z,4.35
2019-02-18T05:12:24.329Z,3.40
2019-02-18T05:14:51.725Z,4.87
2019-02-18T05:17:19.140Z,3.55
2019-02-18T05:19:46.972Z,3.35
2019-02-18T05:22:14.545Z,4.60
2019-02-18T05:24:41.876Z,6.62
2019-02-18T05:27:09.405Z,6.42
2019-02-18T05:29:36.859Z,6.80
2019-02-18T05:32:04.409Z,6.12
2019-02-18T05:34:31.718Z,6.15
2019-02-18T05:36:59.498Z,10.90
2019-02-18T05:39:27.286Z,9.30
2019-02-18T05:41:54.681Z,6.33
2019-02-18T05:44:21.989Z,9.18
2019-02-18T05:46:49.243Z,5.75
2019-02-18T05:49:16.728Z,6.22
2019-02-18T05:51:44.877Z,4.15
2019-02-18T05:54:12.364Z,5.78
2019-02-18T05:56:39.836Z,4.37
2019-02-18T05:59:07.396Z,4.47
2019-02-18T06:01:35.265Z,5.70
2019-02-18T06:04:03.148Z,9.53
2019-02-18T06:06:31.299Z,7.40
2019-02-18T06:08:58.761Z,9.65
2019-02-18T06:11:26.248Z,3.87
2019-02-18T06:13:54.121Z,3.90
2019-02-18T06:16:21.587Z,4.65
2019-02-18T06:18:49.549Z,6.28
2019-02-18T06:21:17.217Z,4.90
2019-02-18T06:23:44.812Z,5.65
2019-02-18T06:26:12.474Z,6.40
2019-02-18T06:28:41.115Z,3.65
2019-02-18T06:31:08.775Z,3.60
2019-02-18T06:33:36.860Z,4.35
2019-02-18T06:36:04.336Z,5.53
2019-02-18T06:38:31.733Z,4.95
2019-02-18T06:40:59.047Z,11.00
2019-02-18T06:43:26.800Z,8.85
2019-02-18T06:46:09.388Z,8.75
2019-02-18T06:48:41.633Z,8.45
2019-02-18T06:51:09.033Z,6.90
2019-02-18T06:53:36.393Z,6.35
2019-02-18T06:56:03.721Z,14.63
2019-02-18T06:58:35.840Z,7.37
2019-02-18T07:01:23.078Z,14.18
2019-02-18T07:04:19.062Z,19.23
2019-02-18T07:07:08.591Z,18.52
2019-02-18T07:10:01.672Z,12.47
2019-02-18T07:12:31.652Z,11.25
2019-02-18T07:14:59.110Z,12.60
2019-02-18T07:17:26.712Z,15.13
2019-02-18T07:19:54.365Z,21.40
2019-02-18T07:22:22.132Z,24.15
2019-02-18T07:24:49.512Z,23.27
2019-02-18T07:27:16.887Z,13.32
2019-02-18T07:29:44.709Z,12.55
2019-02-18T07:32:12.462Z,14.47
2019-02-18T07:34:39.824Z,8.15
2019-02-18T07:37:07.266Z,8.78
2019-02-18T07:39:34.891Z,5.20
2019-02-18T07:42:02.286Z,6.33
2019-02-18T07:44:30.368Z,10.48
2019-02-18T07:47:17.332Z,8.70
2019-02-18T07:49:46.315Z,14.55
2019-02-18T07:52:14.472Z,11.53
2019-02-18T07:54:41.824Z,9.15
2019-02-18T07:57:09.436Z,6.42
2019-02-18T07:59:37.114Z,10.65
2019-02-18T08:02:05.299Z,9.80
2019-02-18T08:04:32.976Z,7.33
2019-02-18T08:07:00.828Z,10.85
2019-02-18T08:09:28.290Z,10.03
2019-02-18T08:11:56.060Z,8.60
2019-02-18T08:14:23.580Z,10.98
2019-02-18T08:16:51.356Z,7.60
2019-02-18T08:19:19.340Z,17.07
2019-02-18T08:21:47.384Z,6.70
2019-02-18T08:24:15.334Z,9.83
2019-02-18T08:26:44.170Z,20.62
2019-02-18T08:29:11.850Z,8.25
2019-02-18T08:31:39.168Z,9.63
2019-02-18T08:34:06.697Z,13.18
2019-02-18T08:36:34.522Z,30.50
2019-02-18T08:39:04.614Z,10.85
2019-02-18T08:41:33.194Z,7.03
2019-02-18T08:44:00.672Z,12.15
2019-02-18T08:46:28.392Z,9.70
2019-02-18T08:48:55.920Z,9.75
2019-02-18T08:51:23.406Z,12.63
2019-02-18T08:53:50.951Z,10.43
2019-02-18T08:56:19.151Z,10.68
2019-02-18T08:58:46.530Z,11.88
2019-02-18T09:01:13.855Z,10.65
2019-02-18T09:03:41.298Z,9.03
2019-02-18T09:06:08.830Z,13.10
2019-02-18T09:08:36.216Z,8.68
2019-02-18T09:11:03.607Z,9.23
2019-02-18T09:13:31.317Z,10.30
2019-02-18T09:16:00.407Z,9.70
2019-02-18T09:18:27.909Z,11.03
2019-02-18T09:20:55.417Z,7.45
2019-02-18T09:23:40.747Z,8.68
2019-02-18T09:26:08.525Z,7.60
2019-02-18T09:28:36.175Z,10.20
2019-02-18T09:31:03.928Z,6.22
2019-02-18T09:33:31.300Z,7.08
2019-02-18T09:35:58.801Z,11.10
2019-02-18T09:38:26.339Z,8.50
2019-02-18T09:40:53.983Z,17.12
2019-02-18T09:43:21.523Z,7.60
2019-02-18T09:45:48.845Z,13.53
2019-02-18T09:48:16.491Z,9.57
2019-02-18T09:50:44.109Z,9.80
2019-02-18T09:53:11.631Z,12.23
2019-02-18T09:55:39.102Z,12.00
2019-02-18T09:58:06.438Z,8.33
2019-02-18T10:00:34.445Z,18.93
2019-02-18T10:03:01.942Z,12.47
2019-02-18T10:05:29.476Z,6.70
2019-02-18T10:07:56.864Z,5.70
2019-02-18T10:10:24.486Z,8.67
2019-02-18T10:12:51.832Z,8.93
2019-02-18T10:15:19.153Z,11.07
2019-02-18T10:17:46.524Z,12.13
2019-02-18T10:20:14.532Z,8.73
2019-02-18T10:22:42.700Z,8.07
2019-02-18T10:25:10.309Z,12.77
2019-02-18T10:27:38.211Z,13.00
2019-02-18T10:30:06.029Z,13.00
2019-02-18T10:32:33.832Z,14.57
2019-02-18T10:35:01.285Z,11.93
2019-02-18T10:37:28.644Z,15.77
2019-02-18T10:39:56.009Z,8.53
2019-02-18T10:42:23.808Z,9.20
2019-02-18T10:44:51.339Z,7.30
2019-02-18T10:47:19.723Z,7.67
2019-02-18T10:49:47.314Z,8.87
2019-02-18T10:52:14.704Z,7.60
2019-02-18T10:54:42.247Z,11.03
2019-02-18T10:57:09.960Z,8.30
2019-02-18T10:59:38.198Z,12.47
2019-02-18T11:02:06.828Z,8.37
2019-02-18T11:04:34.579Z,9.13
2019-02-18T11:07:02.001Z,8.73
2019-02-18T11:09:29.781Z,7.47
2019-02-18T11:11:57.453Z,9.57
2019-02-18T11:14:24.804Z,6.90
2019-02-18T11:16:52.344Z,10.13
2019-02-18T11:19:19.904Z,7.87
2019-02-18T11:21:47.729Z,10.30
2019-02-18T11:24:15.592Z,6.80
2019-02-18T11:26:43.126Z,10.57
2019-02-18T11:29:11.503Z,9.13
2019-02-18T11:31:38.971Z,6.70
2019-02-18T11:34:06.320Z,7.20
2019-02-18T11:36:34.114Z,8.33
2019-02-18T11:39:01.954Z,9.60
2019-02-18T11:41:31.475Z,7.23
2019-02-18T11:44:00.447Z,8.03
2019-02-18T11:46:27.788Z,6.23
2019-02-18T11:48:55.206Z,6.00
2019-02-18T11:51:22.725Z,13.20
2019-02-18T11:53:50.579Z,9.37
2019-02-18T11:56:18.078Z,7.07
2019-02-18T11:58:45.613Z,6.17
2019-02-18T12:01:13.265Z,6.80
2019-02-18T12:03:40.681Z,7.47
2019-02-18T12:06:08.211Z,8.10
2019-02-18T12:08:35.805Z,6.27
2019-02-18T12:11:03.346Z,8.47
2019-02-18T12:13:31.184Z,6.00
2019-02-18T12:15:58.691Z,7.83
2019-02-18T12:18:26.996Z,9.77
2019-02-18T12:20:54.381Z,5.43
2019-02-18T12:23:22.395Z,7.27
2019-02-18T12:25:50.177Z,7.20
2019-02-18T12:28:17.556Z,5.70
2019-02-18T12:30:45.008Z,6.67
2019-02-18T12:33:14.432Z,14.33
2019-02-18T12:35:42.074Z,15.20
2019-02-18T12:38:09.543Z,6.87
2019-02-18T12:40:37.062Z,14.53
2019-02-18T12:43:05.063Z,8.03
2019-02-18T12:45:32.420Z,11.70
2019-02-18T12:47:59.759Z,11.10
2019-02-18T12:50:27.152Z,9.27
2019-02-18T12:52:55.101Z,7.67
2019-02-18T12:55:23.464Z,11.70
2019-02-18T12:57:51.323Z,12.90
2019-02-18T13:00:18.917Z,8.90
2019-02-18T13:02:46.924Z,9.97
2019-02-18T13:05:15.523Z,11.77
2019-02-18T13:07:43.289Z,10.00
2019-02-18T13:10:11.459Z,10.30
2019-02-18T13:12:39.636Z,7.80
2019-02-18T13:15:09.682Z,9.80
2019-02-18T13:17:37.401Z,9.57
2019-02-18T13:20:05.458Z,7.33
2019-02-18T13:22:33.775Z,11.20
2019-02-18T13:25:01.529Z,11.37
2019-02-18T13:27:29.816Z,9.43
2019-02-18T13:29:57.565Z,9.50
2019-02-18T13:32:25.955Z,11.73
2019-02-18T13:34:53.409Z,15.27
2019-02-18T13:37:20.899Z,8.40
2019-02-18T13:39:48.953Z,8.53
2019-02-18T13:42:16.908Z,11.03
2019-02-18T13:44:44.989Z,15.53
2019-02-18T13:47:12.376Z,7.63
2019-02-18T13:49:40.821Z,13.03
2019-02-18T13:52:09.473Z,9.20
2019-02-18T13:54:37.072Z,9.90
2019-02-18T13:57:10.022Z,11.67
2019-02-18T13:59:34.305Z,12.00
2019-02-18T14:02:01.776Z,14.27
2019-02-18T14:04:29.107Z,8.10
2019-02-18T14:06:57.088Z,11.70
2019-02-18T14:09:24.539Z,10.17
2019-02-18T14:11:52.348Z,8.37
2019-02-18T14:14:19.668Z,12.90
2019-02-18T14:16:47.163Z,15.50
2019-02-18T14:19:14.527Z,9.20
2019-02-18T14:21:42.677Z,11.87
2019-02-18T14:24:10.055Z,10.63
2019-02-18T14:26:37.934Z,13.63
2019-02-18T14:29:05.680Z,9.50
2019-02-18T14:31:33.588Z,13.20
2019-02-18T14:34:01.113Z,11.97
2019-02-18T14:36:29.237Z,12.17
2019-02-18T14:38:57.422Z,13.10
2019-02-18T14:41:24.910Z,12.10
2019-02-18T14:43:52.304Z,12.23
2019-02-18T14:46:19.931Z,12.93
2019-02-18T14:48:47.268Z,11.30
2019-02-18T14:51:14.756Z,11.73
2019-02-18T14:53:42.292Z,13.10
2019-02-18T14:56:13.056Z,9.63
2019-02-18T14:58:41.306Z,11.60
2019-02-18T15:01:09.182Z,10.50
2019-02-18T15:03:36.788Z,12.47
2019-02-18T15:06:04.344Z,11.57
2019-02-18T15:08:32.247Z,16.53
2019-02-18T15:11:00.621Z,15.10
2019-02-18T15:13:28.422Z,15.80
2019-02-18T15:15:56.029Z,11.50
2019-02-18T15:18:23.550Z,13.20
2019-02-18T15:20:51.029Z,12.80
2019-02-18T15:23:19.021Z,17.00
2019-02-18T15:25:46.360Z,14.37
2019-02-18T15:28:14.074Z,14.37
2019-02-18T15:30:41.984Z,12.73
2019-02-18T15:33:09.728Z,11.27
2019-02-18T15:35:37.188Z,16.43
2019-02-18T15:38:04.693Z,15.20
2019-02-18T15:40:32.108Z,11.83
2019-02-18T15:42:59.600Z,13.50
2019-02-18T15:45:27.345Z,9.40
2019-02-18T15:48:01.590Z,11.70
2019-02-18T15:50:25.257Z,13.73
2019-02-18T15:52:53.849Z,30.70
2019-02-18T15:55:21.204Z,22.73
2019-02-18T15:57:48.795Z,18.43
2019-02-18T16:00:18.649Z,16.50
2019-02-18T16:02:46.663Z,15.70
2019-02-18T16:05:14.413Z,12.00
2019-02-18T16:07:41.780Z,12.83
2019-02-18T16:10:09.774Z,12.30
2019-02-18T16:12:37.520Z,11.33
2019-02-18T16:15:07.262Z,13.67
2019-02-18T16:17:35.169Z,11.20
2019-02-18T16:20:03.731Z,12.47
2019-02-18T16:22:31.236Z,14.30
2019-02-18T16:24:58.950Z,14.63
2019-02-18T16:27:26.455Z,16.20
2019-02-18T16:29:54.093Z,10.43
2019-02-18T16:32:21.773Z,13.63
2019-02-18T16:34:49.326Z,11.70
2019-02-18T16:37:17.028Z,9.97
2019-02-18T16:39:44.878Z,13.13
2019-02-18T16:42:12.707Z,11.57
2019-02-18T16:44:40.076Z,9.17
2019-02-18T16:47:07.446Z,9.50
2019-02-18T16:49:35.108Z,15.17
2019-02-18T16:52:03.966Z,22.83
2019-02-18T16:54:31.455Z,28.17
2019-02-18T16:56:58.915Z,15.07
2019-02-18T16:59:29.404Z,12.90
2019-02-18T17:01:57.177Z,17.03
2019-02-18T17:04:27.288Z,15.47
2019-02-18T17:06:53.908Z,18.80
2019-02-18T17:09:21.913Z,22.60
2019-02-18T17:11:49.762Z,18.67
2019-02-18T17:14:17.803Z,14.77
2019-02-18T17:16:45.268Z,21.80
2019-02-18T17:19:12.720Z,17.73
2019-02-18T17:21:40.210Z,18.40
2019-02-18T17:24:07.905Z,20.53
2019-02-18T17:26:35.572Z,22.17
2019-02-18T17:29:02.925Z,37.57
2019-02-18T17:31:30.362Z,32.93
2019-02-18T17:33:57.853Z,22.03
2019-02-18T17:36:25.663Z,20.30
2019-02-18T17:38:53.109Z,18.00
2019-02-18T17:41:20.551Z,12.43
2019-02-18T17:43:48.480Z,24.97
2019-02-18T17:46:18.453Z,14.83
2019-02-18T17:48:46.474Z,22.63
2019-02-18T17:51:14.407Z,23.67
2019-02-18T17:53:41.923Z,29.37
2019-02-18T17:56:09.420Z,17.80
2019-02-18T17:58:36.829Z,14.53
2019-02-18T18:01:04.715Z,11.87
2019-02-18T18:03:32.204Z,11.50
2019-02-18T18:05:59.514Z,30.23
2019-02-18T18:08:26.888Z,24.23
2019-02-18T18:10:54.651Z,22.80
2019-02-18T18:13:25.239Z,33.10
2019-02-18T18:15:51.792Z,33.03
2019-02-18T18:18:19.963Z,27.23
2019-02-18T18:20:47.431Z,73.97
2019-02-18T18:23:15.116Z,41.80
2019-02-18T18:25:42.991Z,23.27
2019-02-18T18:28:10.475Z,15.93
2019-02-18T18:30:38.542Z,13.60
2019-02-18T18:33:06.021Z,24.67
2019-02-18T18:35:33.968Z,29.30
2019-02-18T18:38:01.337Z,29.60
2019-02-18T18:40:28.916Z,15.20
2019-02-18T18:42:56.371Z,11.20
2019-02-18T18:45:24.294Z,11.50
2019-02-18T18:47:51.811Z,9.10
2019-02-18T18:50:19.394Z,15.30
2019-02-18T18:52:47.005Z,17.17
2019-02-18T18:55:14.476Z,18.40
2019-02-18T18:57:42.426Z,13.03
2019-02-18T19:00:14.034Z,10.27
2019-02-18T19:02:41.979Z,9.07
2019-02-18T19:05:09.420Z,32.47
2019-02-18T19:07:37.106Z,55.17
2019-02-18T19:10:05.167Z,77.03
2019-02-18T19:12:32.670Z,80.77
2019-02-18T19:15:00.047Z,87.63
2019-02-18T19:17:27.874Z,94.70
2019-02-18T19:19:57.853Z,92.60
2019-02-18T19:22:25.492Z,77.47
2019-02-18T19:24:52.935Z,76.60
2019-02-18T19:27:20.421Z,80.47
2019-02-18T19:29:47.787Z,80.53
2019-02-18T19:32:15.592Z,61.73
2019-02-18T19:34:44.506Z,56.50
2019-02-18T19:37:12.236Z,43.43
2019-02-18T19:39:40.473Z,28.90
2019-02-18T19:42:08.194Z,31.60
2019-02-18T19:44:36.022Z,33.23
2019-02-18T19:47:03.548Z,39.77
2019-02-18T19:49:31.580Z,43.60
2019-02-18T19:51:59.275Z,41.03
2019-02-18T19:54:26.790Z,46.13
2019-02-18T19:56:54.579Z,36.20
2019-02-18T19:59:22.443Z,35.30
2019-02-18T20:01:49.803Z,26.27
2019-02-18T20:04:17.569Z,32.70
2019-02-18T20:06:45.470Z,32.93
2019-02-18T20:09:14.687Z,29.50
2019-02-18T20:11:43.198Z,37.80
2019-02-18T20:14:10.662Z,42.83
2019-02-18T20:16:38.605Z,43.73
2019-02-18T20:19:06.135Z,41.00
2019-02-18T20:21:33.767Z,43.87
2019-02-18T20:24:02.312Z,41.93
2019-02-18T20:26:29.795Z,35.70
2019-02-18T20:28:57.358Z,36.57
2019-02-18T20:31:24.847Z,47.53
2019-02-18T20:33:52.349Z,41.57
2019-02-18T20:36:19.920Z,39.93
2019-02-18T20:38:47.700Z,46.87
2019-02-18T20:41:15.245Z,43.00
2019-02-18T20:43:42.796Z,49.73
2019-02-18T20:46:10.453Z,37.93
2019-02-18T20:48:38.064Z,38.00
2019-02-18T20:51:06.000Z,38.27
2019-02-18T20:53:34.544Z,36.13
2019-02-18T20:56:02.147Z,38.07
2019-02-18T20:58:29.868Z,35.13
2019-02-18T21:00:57.628Z,32.27
2019-02-18T21:03:25.068Z,31.90
2019-02-18T21:05:52.605Z,30.70
2019-02-18T21:08:20.240Z,25.40
2019-02-18T21:10:48.005Z,26.50
2019-02-18T21:13:15.476Z,27.57
2019-02-18T21:15:43.112Z,23.40
2019-02-18T21:18:10.938Z,22.57
2019-02-18T21:20:38.330Z,23.57
2019-02-18T21:23:05.660Z,21.53
2019-02-18T21:25:33.512Z,25.93
2019-02-18T21:28:00.972Z,24.70
2019-02-18T21:30:28.409Z,28.03
2019-02-18T21:32:55.878Z,17.87
2019-02-18T21:35:23.664Z,24.97
2019-02-18T21:37:51.051Z,17.63
2019-02-18T21:40:18.603Z,19.77
2019-02-18T21:42:46.406Z,20.93
2019-02-18T21:45:13.904Z,18.27
2019-02-18T21:47:41.540Z,15.40
2019-02-18T21:50:09.071Z,19.97
2019-02-18T21:52:36.835Z,19.40
2019-02-18T21:55:04.921Z,22.73
2019-02-18T21:57:32.553Z,20.90
2019-02-18T21:59:59.907Z,20.83
2019-02-18T22:02:27.271Z,21.83
2019-02-18T22:04:55.029Z,34.37
2019-02-18T22:07:22.869Z,28.93
2019-02-18T22:09:50.500Z,31.70
2019-02-18T22:12:19.382Z,38.90
2019-02-18T22:14:46.824Z,50.67
2019-02-18T22:17:15.712Z,47.00
2019-02-18T22:19:43.439Z,46.43
2019-02-18T22:22:10.876Z,38.13
2019-02-18T22:24:39.327Z,35.80
2019-02-18T22:27:06.951Z,45.00
2019-02-18T22:29:34.298Z,49.80
2019-02-18T22:32:02.063Z,44.00
2019-02-18T22:34:29.813Z,45.80
2019-02-18T22:36:57.701Z,43.80
2019-02-18T22:39:25.590Z,43.60
2019-02-18T22:41:53.131Z,42.63
2019-02-18T22:44:20.525Z,53.87
2019-02-18T22:46:49.065Z,40.73
2019-02-18T22:49:16.411Z,30.50
2019-02-18T22:51:43.896Z,28.83
2019-02-18T22:54:11.838Z,27.43
2019-02-18T22:56:40.717Z,22.73
2019-02-18T22:59:08.593Z,23.53
2019-02-18T23:01:36.449Z,17.23
2019-02-18T23:04:04.638Z,15.97
2019-02-18T23:06:32.262Z,17.40
2019-02-18T23:09:00.060Z,19.80
2019-02-18T23:11:28.404Z,16.80
2019-02-18T23:13:56.095Z,16.33
2019-02-18T23:16:23.942Z,22.40
2019-02-18T23:18:51.953Z,20.10
2019-02-18T23:21:19.866Z,15.57
2019-02-18T23:23:47.351Z,21.03
2019-02-18T23:26:15.129Z,15.83
2019-02-18T23:28:42.765Z,16.93
2019-02-18T23:31:10.482Z,18.80
2019-02-18T23:33:37.945Z,17.43
2019-02-18T23:36:05.812Z,16.67
2019-02-18T23:38:33.308Z,22.87
2019-02-18T23:41:01.224Z,16.50
2019-02-18T23:43:29.262Z,19.00
2019-02-18T23:45:56.786Z,17.67
2019-02-18T23:48:24.706Z,17.27
2019-02-18T23:50:52.026Z,22.03
2019-02-18T23:53:19.751Z,28.30
2019-02-18T23:55:47.087Z,28.73
2019-02-18T23:58:14.664Z,26.00
